createdAt,value
2018-09-28T00:02:07.921Z,6.83
2018-09-28T00:04:36.770Z,6.83
2018-09-28T00:07:05.654Z,6.77
2018-09-28T00:09:34.662Z,6.70
2018-09-28T00:12:03.574Z,6.93
2018-09-28T00:14:32.452Z,6.10
2018-09-28T00:17:01.576Z,6.70
2018-09-28T00:19:30.433Z,7.83
2018-09-28T00:21:59.302Z,7.43
2018-09-28T00:24:28.116Z,7.53
2018-09-28T00:26:57.024Z,8.23
2018-09-28T00:29:25.899Z,7.67
2018-09-28T00:31:54.815Z,7.40
2018-09-28T00:34:23.647Z,7.77
2018-09-28T00:36:52.569Z,7.50
2018-09-28T00:39:21.396Z,8.70
2018-09-28T00:41:50.271Z,7.93
2018-09-28T00:44:19.220Z,6.97
2018-09-28T00:46:48.319Z,7.43
2018-09-28T00:49:17.412Z,7.00
2018-09-28T00:51:46.442Z,7.90
2018-09-28T00:54:15.367Z,7.90
2018-09-28T00:56:44.150Z,8.03
2018-09-28T00:59:13.113Z,8.37
2018-09-28T01:01:42.150Z,8.60
2018-09-28T01:04:11.082Z,7.77
2018-09-28T01:06:39.993Z,9.90
2018-09-28T01:09:10.675Z,9.10
2018-09-28T01:11:44.615Z,9.47
2018-09-28T01:14:13.521Z,8.80
2018-09-28T01:16:42.456Z,9.10
2018-09-28T01:19:11.338Z,8.50
2018-09-28T01:21:40.299Z,9.80
2018-09-28T01:24:09.216Z,8.20
2018-09-28T01:26:38.312Z,9.50
2018-09-28T01:29:07.262Z,9.20
2018-09-28T01:31:36.147Z,10.30
2018-09-28T01:34:05.066Z,11.07
2018-09-28T01:36:34.576Z,11.13
2018-09-28T01:39:03.816Z,10.90
2018-09-28T01:41:32.736Z,12.43
2018-09-28T01:44:01.706Z,11.53
2018-09-28T01:46:30.566Z,12.03
2018-09-28T01:48:59.574Z,13.07
2018-09-28T01:51:28.610Z,13.57
2018-09-28T01:53:57.545Z,14.20
2018-09-28T01:56:33.910Z,12.60
2018-09-28T01:59:02.818Z,14.60
2018-09-28T02:01:31.791Z,13.27
2018-09-28T02:04:01.402Z,12.47
2018-09-28T02:06:30.359Z,12.97
2018-09-28T02:08:59.229Z,12.23
2018-09-28T02:11:28.105Z,12.60
2018-09-28T02:13:57.214Z,13.30
2018-09-28T02:16:26.112Z,12.73
2018-09-28T02:18:55.026Z,12.07
2018-09-28T02:21:24.144Z,11.13
2018-09-28T02:23:53.039Z,10.57
2018-09-28T02:26:21.834Z,10.53
2018-09-28T02:28:50.769Z,11.77
2018-09-28T02:31:19.655Z,11.63
2018-09-28T02:33:48.631Z,11.03
2018-09-28T02:36:17.506Z,12.03
2018-09-28T02:38:46.474Z,12.40
2018-09-28T02:41:15.490Z,12.20
2018-09-28T02:43:44.461Z,13.23
2018-09-28T02:46:13.804Z,12.50
2018-09-28T02:48:42.741Z,14.53
2018-09-28T02:51:11.583Z,12.63
2018-09-28T02:53:40.461Z,13.70
2018-09-28T02:56:09.341Z,14.97
2018-09-28T02:58:38.238Z,16.17
2018-09-28T03:01:07.182Z,15.50
2018-09-28T03:03:36.355Z,16.63
2018-09-28T03:06:05.254Z,16.20
2018-09-28T03:08:34.058Z,19.40
2018-09-28T03:11:03.023Z,16.00
2018-09-28T03:13:31.864Z,15.13
2018-09-28T03:16:00.683Z,15.57
2018-09-28T03:18:29.576Z,16.47
2018-09-28T03:20:58.517Z,15.73
2018-09-28T03:23:27.353Z,17.10
2018-09-28T03:25:56.252Z,15.77
2018-09-28T03:28:25.019Z,15.47
2018-09-28T03:30:53.864Z,18.60
2018-09-28T03:33:22.748Z,18.07
2018-09-28T03:35:51.638Z,17.93
2018-09-28T03:38:20.456Z,18.20
2018-09-28T03:40:49.404Z,17.50
2018-09-28T03:43:18.442Z,19.60
2018-09-28T03:45:47.331Z,18.40
2018-09-28T03:48:16.237Z,20.73
2018-09-28T03:50:45.180Z,18.77
2018-09-28T03:53:14.101Z,19.37
2018-09-28T03:55:42.911Z,19.70
2018-09-28T03:58:11.818Z,18.40
2018-09-28T04:00:40.666Z,18.73
2018-09-28T04:03:09.550Z,19.47
2018-09-28T04:05:38.568Z,19.10
2018-09-28T04:08:07.697Z,20.33
2018-09-28T04:10:36.580Z,22.33
2018-09-28T04:13:05.551Z,20.53
2018-09-28T04:15:34.905Z,21.40
2018-09-28T04:18:04.034Z,22.57
2018-09-28T04:20:33.544Z,20.43
2018-09-28T04:23:02.515Z,21.90
2018-09-28T04:25:31.906Z,21.97
2018-09-28T04:28:00.800Z,22.63
2018-09-28T04:30:30.290Z,23.17
2018-09-28T04:32:59.510Z,21.73
2018-09-28T04:35:28.857Z,23.40
2018-09-28T04:37:57.861Z,24.17
2018-09-28T04:40:26.710Z,22.43
2018-09-28T04:42:55.566Z,23.27
2018-09-28T04:45:24.420Z,22.00
2018-09-28T04:47:53.254Z,23.93
2018-09-28T04:50:22.206Z,24.63
2018-09-28T04:52:51.016Z,24.67
2018-09-28T04:55:19.897Z,25.00
2018-09-28T04:57:48.752Z,26.30
2018-09-28T05:00:17.615Z,24.17
2018-09-28T05:02:46.439Z,23.97
2018-09-28T05:05:17.797Z,25.80
2018-09-28T05:07:46.697Z,26.07
2018-09-28T05:10:15.530Z,24.90
2018-09-28T05:12:44.363Z,25.27
2018-09-28T05:15:13.149Z,26.67
2018-09-28T05:17:42.329Z,27.00
2018-09-28T05:20:11.199Z,24.97
2018-09-28T05:22:40.420Z,25.33
2018-09-28T05:25:09.745Z,23.77
2018-09-28T05:27:38.595Z,27.10
2018-09-28T05:30:08.349Z,26.53
2018-09-28T05:32:38.080Z,26.10
2018-09-28T05:35:08.251Z,24.63
2018-09-28T05:37:37.843Z,24.00
2018-09-28T05:40:08.123Z,23.70
2018-09-28T05:42:37.162Z,25.90
2018-09-28T05:45:06.160Z,23.63
2018-09-28T05:47:35.462Z,21.40
2018-09-28T05:50:05.800Z,22.17
2018-09-28T05:52:35.491Z,19.20
2018-09-28T05:55:05.042Z,20.83
2018-09-28T05:57:33.953Z,20.60
2018-09-28T06:00:08.163Z,18.90
2018-09-28T06:03:12.322Z,19.10
2018-09-28T06:05:42.836Z,20.27
2018-09-28T06:08:12.367Z,19.97
2018-09-28T06:10:42.450Z,17.47
2018-09-28T06:13:11.306Z,14.40
2018-09-28T06:15:40.176Z,13.47
2018-09-28T06:18:09.061Z,11.63
2018-09-28T06:20:37.977Z,11.57
2018-09-28T06:23:08.513Z,10.83
2018-09-28T06:25:49.705Z,8.80
2018-09-28T06:28:19.028Z,8.77
2018-09-28T06:30:49.840Z,8.27
2018-09-28T06:33:19.110Z,8.20
2018-09-28T06:35:48.379Z,8.60
2018-09-28T06:38:17.363Z,7.80
2018-09-28T06:41:00.944Z,8.80
2018-09-28T06:43:45.153Z,7.87
2018-09-28T06:46:37.647Z,6.87
2018-09-28T06:49:07.764Z,6.83
2018-09-28T06:51:36.575Z,7.87
2018-09-28T06:54:06.598Z,7.73
2018-09-28T06:56:40.898Z,7.40
2018-09-28T07:02:27.183Z,7.27
2018-09-28T07:04:55.933Z,7.30
2018-09-28T07:07:24.739Z,6.60
2018-09-28T07:09:53.566Z,6.73
2018-09-28T07:12:22.445Z,7.00
2018-09-28T07:14:51.209Z,6.97
2018-09-28T07:17:20.069Z,6.77
2018-09-28T07:19:48.920Z,6.07
2018-09-28T07:22:17.708Z,5.70
2018-09-28T07:24:46.572Z,6.73
2018-09-28T07:27:15.582Z,5.70
2018-09-28T07:29:44.444Z,6.00
2018-09-28T07:32:13.253Z,6.10
2018-09-28T07:34:42.132Z,5.83
2018-09-28T07:37:11.134Z,6.20
2018-09-28T07:39:39.912Z,6.50
2018-09-28T07:42:08.723Z,5.90
2018-09-28T07:44:37.637Z,6.50
2018-09-28T07:47:06.919Z,5.90
2018-09-28T07:49:35.684Z,5.60
2018-09-28T07:52:04.665Z,5.90
2018-09-28T07:54:33.494Z,6.17
2018-09-28T07:57:02.341Z,7.13
2018-09-28T07:59:31.209Z,5.83
2018-09-28T08:02:00.872Z,6.00
2018-09-28T08:04:29.768Z,6.00
2018-09-28T08:06:58.614Z,5.60
2018-09-28T08:09:27.376Z,6.13
2018-09-28T08:11:56.207Z,5.80
2018-09-28T08:14:24.991Z,5.90
2018-09-28T08:16:53.758Z,6.47
2018-09-28T08:19:22.560Z,5.67
2018-09-28T08:21:51.465Z,6.10
2018-09-28T08:24:20.314Z,5.20
2018-09-28T08:26:49.114Z,5.83
2018-09-28T08:29:17.964Z,5.97
2018-09-28T08:31:46.864Z,6.73
2018-09-28T08:34:15.873Z,5.93
2018-09-28T08:36:44.805Z,5.60
2018-09-28T08:39:13.553Z,6.37
2018-09-28T08:41:42.434Z,5.77
2018-09-28T08:44:11.218Z,5.10
2018-09-28T08:46:40.017Z,5.70
2018-09-28T08:49:08.881Z,5.80
2018-09-28T08:51:37.678Z,4.70
2018-09-28T08:54:06.471Z,5.37
2018-09-28T08:56:35.297Z,5.20
2018-09-28T08:59:04.151Z,5.40
2018-09-28T09:01:32.983Z,4.93
2018-09-28T09:04:01.934Z,5.60
2018-09-28T09:06:30.717Z,6.17
2018-09-28T09:08:59.593Z,5.10
2018-09-28T09:11:28.495Z,5.83
2018-09-28T09:13:57.345Z,4.50
2018-09-28T09:16:26.486Z,4.83
2018-09-28T09:18:55.293Z,4.77
2018-09-28T09:21:24.392Z,4.90
2018-09-28T09:23:53.289Z,4.83
2018-09-28T09:26:22.118Z,5.90
2018-09-28T09:28:51.363Z,4.80
2018-09-28T09:31:20.258Z,5.47
2018-09-28T09:33:49.639Z,5.27
2018-09-28T09:36:18.452Z,4.93
2018-09-28T09:38:47.262Z,6.13
2018-09-28T09:41:16.112Z,5.03
2018-09-28T09:43:44.913Z,5.20
2018-09-28T09:46:13.759Z,4.37
2018-09-28T09:48:42.572Z,5.70
2018-09-28T09:51:11.666Z,5.53
2018-09-28T09:53:40.471Z,4.87
2018-09-28T09:56:09.317Z,4.97
2018-09-28T09:58:38.073Z,5.30
2018-09-28T10:01:07.981Z,5.20
2018-09-28T10:03:42.107Z,4.70
2018-09-28T10:06:11.436Z,4.50
2018-09-28T10:08:40.210Z,4.57
2018-09-28T10:11:09.054Z,4.90
2018-09-28T10:13:38.192Z,4.17
2018-09-28T10:16:07.138Z,4.97
2018-09-28T10:18:35.970Z,5.20
2018-09-28T10:21:04.795Z,5.47
2018-09-28T10:23:33.605Z,5.27
2018-09-28T10:26:02.479Z,5.50
2018-09-28T10:28:31.346Z,5.30
2018-09-28T10:31:00.130Z,5.07
2018-09-28T10:33:29.054Z,5.10
2018-09-28T10:35:57.763Z,4.37
2018-09-28T10:38:26.557Z,4.90
2018-09-28T10:40:55.493Z,5.07
2018-09-28T10:43:24.934Z,5.40
2018-09-28T10:45:53.762Z,5.53
2018-09-28T10:48:22.515Z,5.50
2018-09-28T10:50:51.951Z,5.80
2018-09-28T10:53:20.757Z,5.67
2018-09-28T10:55:49.880Z,5.43
2018-09-28T10:58:18.793Z,6.20
2018-09-28T11:00:47.762Z,4.80
2018-09-28T11:03:16.616Z,5.37
2018-09-28T11:05:45.478Z,5.70
2018-09-28T11:08:14.394Z,4.63
2018-09-28T11:10:43.363Z,5.03
2018-09-28T11:13:12.154Z,5.97
2018-09-28T11:15:41.044Z,5.70
2018-09-28T11:18:09.893Z,5.20
2018-09-28T11:20:38.792Z,4.97
2018-09-28T11:23:08.667Z,6.17
2018-09-28T11:25:37.571Z,6.53
2018-09-28T11:28:06.461Z,5.30
2018-09-28T11:30:35.521Z,5.10
2018-09-28T11:33:04.321Z,5.67
2018-09-28T11:35:33.053Z,5.40
2018-09-28T11:38:01.866Z,5.70
2018-09-28T11:40:30.801Z,5.00
2018-09-28T11:42:59.632Z,5.50
2018-09-28T11:45:28.501Z,4.77
2018-09-28T11:47:57.240Z,5.13
2018-09-28T11:50:26.094Z,5.33
2018-09-28T11:52:54.861Z,5.23
2018-09-28T11:55:23.674Z,5.43
2018-09-28T11:57:52.431Z,4.90
2018-09-28T12:00:21.480Z,5.60
2018-09-28T12:02:50.283Z,5.60
2018-09-28T12:05:19.103Z,6.00
2018-09-28T12:07:48.058Z,5.13
2018-09-28T12:10:16.910Z,5.60
2018-09-28T12:12:45.849Z,6.00
2018-09-28T12:15:14.611Z,6.13
2018-09-28T12:17:43.912Z,5.53
2018-09-28T12:20:12.768Z,6.20
2018-09-28T12:22:41.678Z,6.20
2018-09-28T12:25:10.800Z,6.03
2018-09-28T12:27:40.034Z,6.30
2018-09-28T12:30:08.829Z,6.90
2018-09-28T12:32:37.717Z,5.47
2018-09-28T12:35:06.856Z,5.50
2018-09-28T12:37:35.654Z,7.33
2018-09-28T12:40:04.588Z,6.23
2018-09-28T12:42:33.669Z,14.73
2018-09-28T12:45:02.621Z,6.90
2018-09-28T12:47:31.738Z,6.90
2018-09-28T12:50:00.679Z,7.63
2018-09-28T12:52:29.672Z,6.20
2018-09-28T12:54:58.891Z,5.77
2018-09-28T12:57:27.658Z,4.80
2018-09-28T12:59:57.000Z,5.83
2018-09-28T13:02:25.960Z,5.30
2018-09-28T13:04:54.664Z,5.67
2018-09-28T13:07:23.443Z,5.60
2018-09-28T13:09:52.296Z,5.10
2018-09-28T13:12:21.167Z,4.93
2018-09-28T13:14:50.048Z,5.23
2018-09-28T13:17:18.778Z,5.13
2018-09-28T13:19:47.618Z,4.97
2018-09-28T13:22:16.483Z,4.63
2018-09-28T13:24:45.325Z,4.63
2018-09-28T13:27:14.226Z,4.93
2018-09-28T13:29:43.465Z,5.40
2018-09-28T13:32:12.551Z,5.73
2018-09-28T13:34:41.430Z,6.10
2018-09-28T13:37:10.357Z,5.47
2018-09-28T13:39:39.802Z,5.90
2018-09-28T13:42:08.714Z,5.37
2018-09-28T13:44:37.633Z,5.63
2018-09-28T13:47:06.885Z,5.63
2018-09-28T13:49:35.781Z,5.40
2018-09-28T13:52:04.618Z,6.40
2018-09-28T13:54:33.476Z,5.27
2018-09-28T13:57:02.370Z,4.83
2018-09-28T13:59:31.304Z,5.90
2018-09-28T14:02:00.215Z,5.73
2018-09-28T14:04:29.229Z,5.97
2018-09-28T14:06:58.131Z,5.20
2018-09-28T14:09:26.861Z,5.40
2018-09-28T14:11:55.791Z,5.27
2018-09-28T14:14:24.671Z,6.30
2018-09-28T14:16:53.485Z,5.40
2018-09-28T14:19:22.391Z,4.70
2018-09-28T14:21:51.135Z,5.30
2018-09-28T14:24:20.066Z,4.90
2018-09-28T14:26:48.974Z,5.87
2018-09-28T14:29:17.729Z,4.93
2018-09-28T14:31:46.742Z,5.57
2018-09-28T14:34:15.579Z,6.97
2018-09-28T14:36:44.453Z,5.83
2018-09-28T14:39:13.315Z,5.60
2018-09-28T14:41:42.180Z,6.00
2018-09-28T14:44:11.641Z,5.90
2018-09-28T14:46:40.536Z,5.83
2018-09-28T14:49:09.400Z,5.73
2018-09-28T14:51:38.230Z,5.53
2018-09-28T14:54:07.152Z,6.27
2018-09-28T14:56:36.198Z,5.50
2018-09-28T14:59:05.646Z,5.43
2018-09-28T15:01:34.645Z,7.03
2018-09-28T15:04:03.417Z,6.60
2018-09-28T15:06:32.283Z,6.33
2018-09-28T15:09:01.596Z,5.70
2018-09-28T15:11:30.524Z,5.97
2018-09-28T15:13:59.280Z,6.37
2018-09-28T15:16:28.127Z,5.50
2018-09-28T15:18:56.927Z,6.13
2018-09-28T15:21:25.752Z,6.40
2018-09-28T15:23:54.692Z,6.90
2018-09-28T15:26:23.439Z,6.30
2018-09-28T15:28:52.228Z,6.20
2018-09-28T15:31:21.103Z,6.77
2018-09-28T15:33:49.974Z,6.67
2018-09-28T15:36:18.896Z,6.70
2018-09-28T15:38:47.675Z,6.03
2018-09-28T15:41:16.564Z,6.20
2018-09-28T15:43:45.551Z,6.17
2018-09-28T15:46:14.577Z,5.90
2018-09-28T15:48:43.546Z,6.20
2018-09-28T15:51:12.684Z,6.30
2018-09-28T15:53:41.591Z,6.30
2018-09-28T15:56:10.928Z,6.80
2018-09-28T15:58:40.131Z,5.80
2018-09-28T16:01:09.128Z,6.43
2018-09-28T16:03:38.024Z,5.83
2018-09-28T16:06:06.944Z,6.20
2018-09-28T16:08:35.848Z,5.83
2018-09-28T16:11:04.772Z,5.57
2018-09-28T16:13:33.637Z,5.87
2018-09-28T16:16:02.436Z,5.80
2018-09-28T16:18:31.319Z,5.23
2018-09-28T16:21:00.123Z,4.87
2018-09-28T16:23:28.947Z,4.60
2018-09-28T16:25:57.818Z,4.80
2018-09-28T16:28:26.586Z,4.80
2018-09-28T16:31:01.593Z,4.90
2018-09-28T16:33:34.336Z,4.47
2018-09-28T16:36:03.496Z,4.63
2018-09-28T16:38:32.598Z,5.30
2018-09-28T16:41:01.379Z,4.33
2018-09-28T16:43:30.226Z,4.37
2018-09-28T16:45:59.064Z,3.80
2018-09-28T16:48:27.825Z,3.40
2018-09-28T16:50:56.681Z,3.40
2018-09-28T16:53:25.514Z,3.53
2018-09-28T16:55:54.426Z,3.87
2018-09-28T16:58:23.484Z,3.70
2018-09-28T17:00:52.248Z,3.70
2018-09-28T17:03:21.069Z,3.63
2018-09-28T17:05:51.797Z,3.27
2018-09-28T17:08:21.619Z,3.00
2018-09-28T17:10:50.470Z,3.40
2018-09-28T17:13:19.250Z,3.90
2018-09-28T17:15:48.127Z,3.20
2018-09-28T17:18:16.933Z,2.90
2018-09-28T17:20:46.244Z,3.77
2018-09-28T17:23:15.211Z,3.70
2018-09-28T17:25:44.066Z,4.00
2018-09-28T17:28:12.934Z,5.20
2018-09-28T17:30:41.814Z,5.13
2018-09-28T17:33:10.548Z,5.47
2018-09-28T17:35:39.763Z,5.30
2018-09-28T17:38:08.565Z,4.80
2018-09-28T17:40:37.485Z,6.10
2018-09-28T17:43:06.264Z,5.63
2018-09-28T17:45:35.117Z,5.40
2018-09-28T17:48:03.919Z,5.53
2018-09-28T17:50:32.725Z,5.43
2018-09-28T17:53:01.488Z,5.30
2018-09-28T17:55:30.735Z,5.30
2018-09-28T17:57:59.572Z,5.50
2018-09-28T18:00:28.480Z,5.03
2018-09-28T18:02:58.119Z,5.00
2018-09-28T18:05:28.003Z,5.60
2018-09-28T18:07:56.814Z,5.43
2018-09-28T18:10:25.714Z,4.90
2018-09-28T18:12:54.551Z,5.50
2018-09-28T18:15:23.419Z,5.77
2018-09-28T18:17:52.303Z,7.20
2018-09-28T18:20:21.228Z,6.70
2018-09-28T18:22:50.078Z,7.50
2018-09-28T18:25:18.888Z,7.70
2018-09-28T18:27:47.695Z,9.30
2018-09-28T18:30:16.500Z,10.80
2018-09-28T18:32:45.538Z,9.30
2018-09-28T18:35:14.455Z,11.97
2018-09-28T18:37:43.287Z,11.77
2018-09-28T18:40:12.493Z,11.73
2018-09-28T18:42:41.356Z,11.80
2018-09-28T18:45:10.211Z,12.00
2018-09-28T18:47:39.110Z,12.57
2018-09-28T18:50:08.024Z,12.67
2018-09-28T18:52:37.077Z,12.47
2018-09-28T18:55:06.287Z,12.10
2018-09-28T18:57:35.112Z,12.03
2018-09-28T19:00:04.004Z,12.80
2018-09-28T19:02:32.887Z,12.03
2018-09-28T19:05:01.661Z,12.87
2018-09-28T19:07:30.485Z,11.57
2018-09-28T19:09:59.266Z,11.47
2018-09-28T19:12:28.364Z,12.00
2018-09-28T19:14:57.136Z,11.23
2018-09-28T19:17:25.976Z,12.57
2018-09-28T19:19:54.863Z,12.03
2018-09-28T19:22:25.598Z,11.87
2018-09-28T19:24:54.647Z,14.37
2018-09-28T19:29:51.195Z,14.10
2018-09-28T19:32:19.969Z,11.90
2018-09-28T19:34:48.846Z,13.50
2018-09-28T19:37:17.743Z,12.53
2018-09-28T19:39:46.634Z,13.73
2018-09-28T19:42:15.645Z,13.07
2018-09-28T19:44:44.557Z,13.00
2018-09-28T19:47:17.615Z,13.30
2018-09-28T19:49:47.226Z,15.90
2018-09-28T19:52:16.015Z,14.40
2018-09-28T19:54:44.818Z,13.33
2018-09-28T19:57:14.041Z,12.37
2018-09-28T19:59:42.874Z,11.83
2018-09-28T20:02:12.173Z,12.57
2018-09-28T20:04:41.018Z,12.87
2018-09-28T20:07:09.866Z,12.80
2018-09-28T20:09:38.740Z,13.37
2018-09-28T20:12:07.856Z,12.87
2018-09-28T20:14:36.748Z,12.50
2018-09-28T20:17:05.592Z,11.50
2018-09-28T20:19:34.428Z,12.70
2018-09-28T20:22:03.321Z,12.90
2018-09-28T20:24:32.430Z,11.93
2018-09-28T20:27:01.267Z,13.00
2018-09-28T20:29:30.065Z,13.37
2018-09-28T20:31:58.919Z,13.43
2018-09-28T20:34:28.035Z,13.10
2018-09-28T20:36:56.837Z,14.40
2018-09-28T20:39:26.035Z,12.50
2018-09-28T20:41:55.064Z,12.07
2018-09-28T20:44:24.109Z,13.20
2018-09-28T20:46:52.942Z,12.90
2018-09-28T20:49:21.793Z,12.00
2018-09-28T20:51:50.597Z,14.03
2018-09-28T20:54:19.485Z,11.57
2018-09-28T20:56:48.380Z,12.40
2018-09-28T20:59:17.244Z,13.10
2018-09-28T21:01:46.107Z,12.47
2018-09-28T21:04:14.954Z,12.73
2018-09-28T21:06:43.765Z,11.93
2018-09-28T21:09:15.609Z,11.83
2018-09-28T21:11:44.428Z,12.17
2018-09-28T21:14:13.249Z,12.80
2018-09-28T21:16:42.106Z,11.47
2018-09-28T21:19:11.050Z,11.30
2018-09-28T21:21:39.918Z,12.10
2018-09-28T21:24:08.781Z,12.03
2018-09-28T21:26:37.593Z,12.73
2018-09-28T21:29:06.872Z,11.37
2018-09-28T21:31:35.687Z,12.20
2018-09-28T21:34:04.636Z,12.43
2018-09-28T21:36:33.456Z,12.33
2018-09-28T21:39:02.342Z,11.80
2018-09-28T21:41:31.220Z,12.00
2018-09-28T21:44:00.039Z,12.33
2018-09-28T21:46:28.867Z,12.30
2018-09-28T21:48:57.715Z,12.43
2018-09-28T21:51:26.500Z,11.57
2018-09-28T21:53:55.370Z,12.00
2018-09-28T21:56:24.230Z,12.20
2018-09-28T21:58:53.287Z,12.00
2018-09-28T22:01:22.097Z,10.97
2018-09-28T22:03:51.179Z,11.07
2018-09-28T22:06:20.076Z,11.47
2018-09-28T22:08:48.957Z,11.87
2018-09-28T22:11:17.859Z,11.43
2018-09-28T22:13:46.685Z,11.70
2018-09-28T22:16:15.705Z,10.97
2018-09-28T22:18:44.637Z,12.03
2018-09-28T22:21:13.507Z,13.07
2018-09-28T22:23:42.353Z,11.87
2018-09-28T22:26:11.122Z,12.27
2018-09-28T22:28:39.947Z,11.70
2018-09-28T22:31:08.808Z,10.87
2018-09-28T22:33:37.619Z,11.87
2018-09-28T22:36:06.537Z,12.13
2018-09-28T22:38:35.425Z,10.33
2018-09-28T22:41:04.303Z,10.80
2018-09-28T22:43:33.416Z,12.30
2018-09-28T22:46:02.242Z,11.77
2018-09-28T22:48:31.093Z,11.23
2018-09-28T22:50:59.894Z,12.13
2018-09-28T22:53:28.747Z,11.30
2018-09-28T22:55:57.560Z,11.60
2018-09-28T22:58:26.389Z,10.47
2018-09-28T23:00:55.267Z,11.90
2018-09-28T23:03:24.079Z,11.80
2018-09-28T23:05:52.930Z,10.20
2018-09-28T23:08:22.217Z,10.40
2018-09-28T23:10:51.014Z,10.90
2018-09-28T23:13:19.875Z,11.23
2018-09-28T23:15:49.357Z,11.37
2018-09-28T23:18:18.241Z,11.00
2018-09-28T23:20:47.079Z,11.00
2018-09-28T23:23:15.943Z,10.57
2018-09-28T23:25:44.998Z,11.00
2018-09-28T23:28:13.831Z,11.40
2018-09-28T23:30:42.650Z,11.90
2018-09-28T23:33:11.406Z,10.73
2018-09-28T23:35:40.190Z,10.87
2018-09-28T23:38:09.064Z,11.13
2018-09-28T23:40:38.379Z,11.13
2018-09-28T23:43:07.182Z,12.40
2018-09-28T23:45:35.996Z,11.97
2018-09-28T23:48:04.894Z,12.33
2018-09-28T23:50:33.762Z,12.43
2018-09-28T23:53:03.549Z,11.50
2018-09-28T23:55:32.600Z,12.17
2018-09-28T23:58:01.428Z,10.43
